Clara City, Minnesota
Current Conditions -  °F | °C
As of 12:14 AM on Thursday 29 Jan 2015 (Local Time) from KMVE Reporting Station
Overcast Overcast  
Wind Chill: 19°   Ceiling: 1200
Heat Index: 32°   Visibility: 10mi
Dew Point: 32°   Wind: 24mph
Humidity: 100%   Direction: 10°N
Pressure: 29.99"   Gusts: 30mph
Location:  44.95°N, 95.37°W
Report Text: KMVE 290614Z AUTO 01021G26KT 10SM OVC012 00/00 A2999 RMK AO2
Loading
Personal Weather Stations






























Interactive Weather Map New forecast layout! Learn more

10-Day Weather Forecast

Advertisements
Track Severe Weather on mobile